Time;durP1;ratioP1;P1;durP2;ratioP2;P2;SDS_P1;SDS_P2;PMS_P1;PMS_P2;Temp;Humidity;BMP_temperature;BMP_pressure;BME280_temperature;BME280_humidity;BME280_pressure;Samples;Min_cycle;Max_cycle;Signal;HPM_P1;HPM_P2
2022/08/27 09:17:27;;;;;;;;;;;;;;;23.70;60.54;96611.31;4158989;28;10329;-70
2022/08/27 09:19:31;;;;;;;;;;;;;;;23.93;59.95;96614.38;4164567;28;5796;-70
2022/08/27 09:21:44;;;;;;;;;;;;;;;24.16;59.65;96610.13;4163125;28;5787;-69
2022/08/27 09:24:01;;;;;;;;;;;;;;;24.34;59.28;96606.72;4150853;28;5785;-69
2022/08/27 09:26:04;;;;;;;;;;;;;;;24.46;59.21;96603.63;4149932;28;5784;-68
2022/08/27 09:29:14;;;;;;;;;;;;;;;24.60;59.01;96602.66;4148912;28;5886;-69
2022/08/27 09:30:42;;;;;;;;;;;;;;;24.78;58.68;96605.69;4150161;28;5797;-68
2022/08/27 09:32:54;;;;;;;;;;;;;;;24.86;58.17;96605.06;4148657;28;7795;-69
2022/08/27 09:34:58;;;;;;;;;;;;;;;24.91;58.47;96603.09;4154734;28;6581;-69
2022/08/27 09:37:06;;;;;;;;;;;;;;;24.98;58.05;96611.69;4151046;28;5890;-68
2022/08/27 09:39:09;;;;;;;;;;;;;;;25.01;57.75;96610.31;4147556;28;5867;-69
2022/08/27 09:41:17;;;;;;;;;;;;;;;25.09;57.77;96606.16;4150725;28;6127;-68
2022/08/27 09:43:23;;;;;;;;;;;;;;;25.11;57.47;96610.19;4152197;28;5785;-69
2022/08/27 09:45:28;;;;;;;;;;;;;;;25.17;57.31;96610.94;4153546;28;5791;-67
2022/08/27 09:47:41;;;;;;;;;;;;;;;25.21;57.23;96601.94;4148909;28;5781;-67
2022/08/27 09:49:46;;;;;;;;;;;;;;;25.27;56.90;96613.53;4149090;28;5772;-67
2022/08/27 09:51:49;;;;;;;;;;;;;;;25.33;57.00;96608.81;4157812;28;5847;-65
2022/08/27 09:53:54;;;;;;;;;;;;;;;25.36;56.82;96603.63;4150801;28;5844;-68
2022/08/27 09:55:59;;;;;;;;;;;;;;;25.43;56.39;96606.78;4156668;28;5886;-71
2022/08/27 09:58:03;;;;;;;;;;;;;;;25.45;56.66;96604.59;4158254;28;5855;-68
2022/08/27 10:00:13;;;;;;;;;;;;;;;25.50;56.46;96601.81;4159274;28;5875;-67
2022/08/27 10:02:19;;;;;;;;;;;;;;;25.52;56.37;96599.63;4147747;28;5983;-63
2022/08/27 10:04:33;;;;;;;;;;;;;;;25.56;56.16;96607.94;4148863;28;6541;-76
2022/08/27 10:06:53;;;;;;;;;;;;;;;25.61;56.10;96609.78;4150891;28;5955;-76
2022/08/27 10:09:00;;;;;;;;;;;;;;;25.65;55.62;96605.38;4153482;28;5841;-75
2022/08/27 10:11:14;;;;;;;;;;;;;;;25.66;55.61;96605.09;4152208;28;5836;-76
2022/08/27 10:13:20;;;;;;;;;;;;;;;25.67;55.33;96606.69;4154457;28;5870;-76
2022/08/27 10:15:27;;;;;;;;;;;;;;;25.65;55.30;96597.28;4158228;28;6452;-76
2022/08/27 10:17:44;;;;;;;;;;;;;;;25.67;55.38;96601.28;4151072;28;5767;-76
2022/08/27 10:19:59;;;;;;;;;;;;;;;25.68;55.17;96602.09;4150657;28;5792;-76
2022/08/27 10:22:11;;;;;;;;;;;;;;;25.70;55.01;96595.31;4150961;28;5751;-76
2022/08/27 10:24:30;;;;;;;;;;;;;;;25.73;54.83;96593.94;4146188;28;5780;-76
2022/08/27 10:26:41;;;;;;;;;;;;;;;25.72;55.00;96595.84;4145582;28;5941;-74
2022/08/27 10:28:59;;;;;;;;;;;;;;;25.72;55.07;96600.44;4145436;28;5773;-76
2022/08/27 10:31:18;;;;;;;;;;;;;;;25.74;54.41;96592.84;4141336;28;5771;-78
2022/08/27 10:33:27;;;;;;;;;;;;;;;25.77;54.29;96598.44;4144007;28;6066;-76
2022/08/27 10:35:40;;;;;;;;;;;;;;;25.77;54.48;96600.34;4144342;28;6573;-77
2022/08/27 10:38:07;;;;;;;;;;;;;;;25.78;54.27;96597.34;4148561;28;5974;-76
2022/08/27 10:40:20;;;;;;;;;;;;;;;25.84;54.26;96589.97;4150344;28;5904;-77
2022/08/27 10:42:28;;;;;;;;;;;;;;;25.83;54.08;96589.16;4144600;28;5839;-70
2022/08/27 10:44:42;;;;;;;;;;;;;;;25.78;53.77;96588.44;4146605;28;5767;-73
2022/08/27 10:46:55;;;;;;;;;;;;;;;25.76;53.94;96591.44;4143969;28;5748;-72
2022/08/27 10:49:06;;;;;;;;;;;;;;;25.78;53.68;96585.72;4142436;28;5796;-72
2022/08/27 10:51:15;;;;;;;;;;;;;;;25.80;53.84;96592.44;4143827;28;5796;-72
2022/08/27 10:53:27;;;;;;;;;;;;;;;25.83;53.65;96583.75;4147557;28;5771;-72
2022/08/27 10:55:33;;;;;;;;;;;;;;;25.87;53.57;96581.25;4144545;28;5777;-72
2022/08/27 10:57:51;;;;;;;;;;;;;;;25.92;53.73;96581.16;4147385;28;6274;-73
2022/08/27 11:00:09;;;;;;;;;;;;;;;25.96;53.58;96576.75;4143566;28;7749;-74
2022/08/27 11:02:23;;;;;;;;;;;;;;;25.97;53.11;96572.94;4148222;28;5903;-72
2022/08/27 11:04:31;;;;;;;;;;;;;;;26.00;53.16;96569.63;4143463;28;5760;-73
2022/08/27 11:06:37;;;;;;;;;;;;;;;26.03;53.36;96566.31;4145984;28;5863;-71
2022/08/27 11:08:48;;;;;;;;;;;;;;;26.09;53.07;96565.16;4145490;28;5845;-62
2022/08/27 11:10:55;;;;;;;;;;;;;;;26.12;52.86;96569.97;4147348;28;5894;-75
2022/08/27 11:13:05;;;;;;;;;;;;;;;26.15;52.93;96562.34;4145629;28;5842;-75
2022/08/27 11:15:11;;;;;;;;;;;;;;;26.16;52.65;96566.66;4143524;28;5901;-74
2022/08/27 11:17:20;;;;;;;;;;;;;;;26.15;52.71;96557.72;4160218;28;5745;-74
2022/08/27 11:19:30;;;;;;;;;;;;;;;26.18;52.87;96554.44;4158083;28;5836;-73
2022/08/27 11:21:41;;;;;;;;;;;;;;;26.20;52.74;96562.25;4154612;28;5766;-74
2022/08/27 11:23:52;;;;;;;;;;;;;;;26.22;52.62;96560.84;4166738;28;5800;-73
2022/08/27 11:25:58;;;;;;;;;;;;;;;26.30;52.59;96559.38;4168645;28;5733;-74
2022/08/27 11:28:06;;;;;;;;;;;;;;;26.33;52.32;96553.34;4168283;28;5820;-74
2022/08/27 11:30:17;;;;;;;;;;;;;;;26.35;52.35;96545.72;4167157;28;5750;-73
2022/08/27 11:32:29;;;;;;;;;;;;;;;26.39;52.67;96553.00;4167872;28;6399;-73
2022/08/27 11:34:39;;;;;;;;;;;;;;;26.40;52.16;96553.78;4168266;28;5741;-73
2022/08/27 11:37:06;;;;;;;;;;;;;;;26.38;52.20;96547.84;4167464;28;5935;-74
2022/08/27 11:39:24;;;;;;;;;;;;;;;26.39;52.38;96544.06;4165164;28;5785;-74
2022/08/27 11:41:50;;;;;;;;;;;;;;;26.40;52.28;96542.97;4168045;28;5816;-74
2022/08/27 11:43:54;;;;;;;;;;;;;;;26.45;52.11;96537.44;4168130;28;5730;-74
2022/08/27 11:45:59;;;;;;;;;;;;;;;26.49;52.12;96535.72;4168245;28;5839;-74
2022/08/27 11:48:16;;;;;;;;;;;;;;;26.53;52.13;96536.72;4167540;28;5827;-73
2022/08/27 11:50:21;;;;;;;;;;;;;;;26.54;51.96;96532.91;4167467;28;5982;-74
2022/08/27 11:52:27;;;;;;;;;;;;;;;26.56;52.12;96536.13;4167373;28;5753;-74
2022/08/27 11:54:45;;;;;;;;;;;;;;;26.54;52.08;96527.50;4167755;28;6016;-73
2022/08/27 11:56:48;;;;;;;;;;;;;;;26.54;52.16;96530.19;4167434;28;5805;-73
2022/08/27 11:58:52;;;;;;;;;;;;;;;26.56;51.79;96528.00;4167417;28;6534;-73
2022/08/27 12:01:00;;;;;;;;;;;;;;;26.60;51.67;96531.69;4167657;28;5053;-74
2022/08/27 12:03:09;;;;;;;;;;;;;;;26.61;51.91;96527.06;4167648;28;5857;-73
2022/08/27 12:05:22;;;;;;;;;;;;;;;26.62;51.91;96529.50;4167626;28;5746;-74
2022/08/27 12:07:34;;;;;;;;;;;;;;;26.64;51.77;96523.78;4166885;28;5734;-75
2022/08/27 12:09:54;;;;;;;;;;;;;;;26.65;51.61;96520.75;4167519;28;5864;-74
2022/08/27 12:12:08;;;;;;;;;;;;;;;26.69;51.51;96512.81;4167741;28;5754;-74
2022/08/27 12:14:24;;;;;;;;;;;;;;;26.71;51.94;96521.44;4167448;28;5741;-74
2022/08/27 12:16:35;;;;;;;;;;;;;;;26.73;51.77;96524.69;4166798;28;5817;-74
2022/08/27 12:18:55;;;;;;;;;;;;;;;26.75;51.62;96518.94;4158304;28;5754;-73
2022/08/27 12:21:06;;;;;;;;;;;;;;;26.76;51.57;96502.38;4166240;28;5088;-74
2022/08/27 12:25:43;;;;;;;;;;;;;;;26.76;51.50;96512.41;4150392;28;5990;-74
2022/08/27 12:27:55;;;;;;;;;;;;;;;26.75;51.59;96494.53;4156204;28;5792;-74
2022/08/27 12:30:00;;;;;;;;;;;;;;;26.77;51.57;96508.59;4154667;28;5757;-74
2022/08/27 12:32:19;;;;;;;;;;;;;;;26.78;51.42;96500.16;4160598;28;6060;-74
2022/08/27 12:34:26;;;;;;;;;;;;;;;26.79;51.45;96509.88;4156337;28;5478;-74
2022/08/27 12:36:32;;;;;;;;;;;;;;;26.80;51.48;96500.66;4153465;28;5789;-74
2022/08/27 12:38:43;;;;;;;;;;;;;;;26.83;51.35;96504.66;4160328;28;5904;-74
2022/08/27 12:40:59;;;;;;;;;;;;;;;26.83;51.16;96489.19;4151794;28;5883;-74
2022/08/27 12:43:07;;;;;;;;;;;;;;;26.83;51.23;96488.38;4152223;28;5884;-74
2022/08/27 12:45:21;;;;;;;;;;;;;;;26.86;51.32;96493.22;4150935;28;5787;-74
2022/08/27 12:47:24;;;;;;;;;;;;;;;26.87;50.97;96486.69;4150768;28;5811;-74
2022/08/27 12:49:32;;;;;;;;;;;;;;;26.87;51.11;96492.91;4149137;28;7977;-74
2022/08/27 12:51:41;;;;;;;;;;;;;;;26.88;51.05;96488.28;4150926;28;5813;-74
2022/08/27 12:53:46;;;;;;;;;;;;;;;26.92;51.00;96478.41;4149355;28;5804;-74
2022/08/27 12:56:05;;;;;;;;;;;;;;;26.93;50.81;96480.81;4150878;28;6480;-74
2022/08/27 12:58:18;;;;;;;;;;;;;;;26.94;50.57;96487.06;4150942;28;5754;-74
2022/08/27 13:00:23;;;;;;;;;;;;;;;26.95;50.56;96486.75;4150594;28;6334;-75
2022/08/27 13:02:47;;;;;;;;;;;;;;;26.96;50.66;96484.84;4150687;28;5782;-74
2022/08/27 13:04:51;;;;;;;;;;;;;;;26.97;50.56;96475.59;4150384;28;5778;-75
2022/08/27 13:06:54;;;;;;;;;;;;;;;26.98;50.37;96466.38;4148243;28;5814;-74
2022/08/27 13:08:59;;;;;;;;;;;;;;;27.00;50.44;96475.00;4150536;28;5885;-74
2022/08/27 13:11:14;;;;;;;;;;;;;;;27.00;50.41;96466.84;4150812;28;6465;-75
2022/08/27 13:13:21;;;;;;;;;;;;;;;27.01;50.35;96476.59;4150083;28;5774;-75
2022/08/27 13:15:26;;;;;;;;;;;;;;;27.03;50.35;96477.13;4152246;28;5754;-74
2022/08/27 13:17:29;;;;;;;;;;;;;;;27.05;50.28;96469.47;4165219;28;5940;-74
2022/08/27 13:19:34;;;;;;;;;;;;;;;27.08;50.14;96470.78;4166814;28;5734;-75
2022/08/27 13:21:37;;;;;;;;;;;;;;;27.09;49.99;96470.47;4166538;28;6002;-74
2022/08/27 13:23:44;;;;;;;;;;;;;;;27.11;50.05;96470.97;4166312;28;6403;-75
2022/08/27 13:25:59;;;;;;;;;;;;;;;27.11;50.15;96465.53;4166782;28;5857;-75
2022/08/27 13:28:10;;;;;;;;;;;;;;;27.12;49.84;96467.16;4166905;28;5760;-74
2022/08/27 13:30:14;;;;;;;;;;;;;;;27.14;49.79;96466.84;4167178;28;5742;-75
2022/08/27 13:32:38;;;;;;;;;;;;;;;27.15;49.87;96466.53;4166911;28;5888;-75
2022/08/27 13:34:41;;;;;;;;;;;;;;;27.15;49.75;96463.81;4166696;28;5910;-75
2022/08/27 13:36:54;;;;;;;;;;;;;;;27.14;49.74;96456.78;4164976;28;5798;-74
2022/08/27 13:38:58;;;;;;;;;;;;;;;27.15;49.61;96455.66;4166601;28;5089;-75
2022/08/27 13:41:06;;;;;;;;;;;;;;;27.15;49.43;96449.44;4165216;28;5810;-75
2022/08/27 13:43:12;;;;;;;;;;;;;;;27.16;49.57;96454.56;4165125;28;5862;-75
2022/08/27 13:45:18;;;;;;;;;;;;;;;27.16;49.35;96446.41;4166846;28;5738;-75
2022/08/27 13:47:23;;;;;;;;;;;;;;;27.17;49.23;96439.06;4165610;28;5786;-73
2022/08/27 13:49:28;;;;;;;;;;;;;;;27.19;49.17;96445.81;4167603;28;5804;-74
2022/08/27 13:51:34;;;;;;;;;;;;;;;27.21;49.01;96440.09;4167303;28;5733;-74
2022/08/27 13:56:03;;;;;;;;;;;;;;;27.21;48.86;96437.38;4153576;28;5881;-74
2022/08/27 13:58:15;;;;;;;;;;;;;;;27.26;48.82;96443.47;4154031;28;7713;-74
2022/08/27 14:00:23;;;;;;;;;;;;;;;27.25;48.72;96436.44;4154941;28;5770;-74
2022/08/27 14:02:28;;;;;;;;;;;;;;;27.27;48.60;96436.13;4153916;28;5763;-74
2022/08/27 14:04:38;;;;;;;;;;;;;;;27.28;48.70;96441.22;4154011;28;5863;-73
2022/08/27 14:06:43;;;;;;;;;;;;;;;27.31;48.54;96434.41;4153952;28;5781;-74
2022/08/27 14:08:46;;;;;;;;;;;;;;;27.31;48.52;96436.31;4154197;28;5838;-74
2022/08/27 14:11:00;;;;;;;;;;;;;;;27.32;48.46;96432.50;4154599;28;5876;-74
2022/08/27 14:13:06;;;;;;;;;;;;;;;27.33;48.03;96444.94;4154370;28;5770;-74
2022/08/27 14:15:19;;;;;;;;;;;;;;;27.37;48.10;96440.50;4154753;28;5778;-74
2022/08/27 14:17:27;;;;;;;;;;;;;;;27.39;47.93;96443.69;4163781;28;6807;-74
2022/08/27 14:19:33;;;;;;;;;;;;;;;27.43;47.84;96431.94;4170871;28;5737;-74
2022/08/27 14:21:42;;;;;;;;;;;;;;;27.46;47.42;96434.03;4170492;28;7021;-73
2022/08/27 14:23:45;;;;;;;;;;;;;;;27.47;47.35;96434.81;4170631;28;5764;-75
2022/08/27 14:25:48;;;;;;;;;;;;;;;27.52;47.00;96434.69;4170993;28;5783;-74
2022/08/27 14:27:55;;;;;;;;;;;;;;;27.56;46.85;96443.81;4170625;28;5761;-73
2022/08/27 14:29:58;;;;;;;;;;;;;;;27.60;46.48;96439.38;4170672;28;5744;-72
2022/08/27 14:32:03;;;;;;;;;;;;;;;27.66;46.11;96435.47;4168709;28;5893;-75
2022/08/27 14:34:07;;;;;;;;;;;;;;;27.70;46.11;96447.28;4170159;28;5820;-73
2022/08/27 14:36:11;;;;;;;;;;;;;;;27.71;45.78;96448.88;4169590;28;5776;-75
2022/08/27 14:38:17;;;;;;;;;;;;;;;27.73;45.59;96449.38;4169938;28;5750;-74
2022/08/27 14:40:20;;;;;;;;;;;;;;;27.73;45.58;96443.94;4170331;28;5748;-75
2022/08/27 14:42:23;;;;;;;;;;;;;;;27.77;45.23;96439.50;4170325;28;5738;-75
2022/08/27 14:44:30;;;;;;;;;;;;;;;27.81;44.99;96445.91;4170733;28;5820;-74
2022/08/27 14:46:36;;;;;;;;;;;;;;;27.78;44.96;96454.69;4170548;28;5761;-73
2022/08/27 14:48:46;;;;;;;;;;;;;;;27.82;44.94;96458.38;4170243;28;6392;-74
2022/08/27 14:50:54;;;;;;;;;;;;;;;27.87;44.80;96448.50;4170709;28;5745;-75
2022/08/27 14:52:56;;;;;;;;;;;;;;;27.85;44.26;96446.06;4169598;28;5880;-74
2022/08/27 14:54:59;;;;;;;;;;;;;;;27.85;44.41;96457.75;4169661;28;5742;-73
2022/08/27 14:57:03;;;;;;;;;;;;;;;27.84;44.51;96448.00;4169938;28;5767;-74
2022/08/27 14:59:06;;;;;;;;;;;;;;;27.87;44.23;96451.22;4170271;28;5809;-75
2022/08/27 15:01:09;;;;;;;;;;;;;;;27.86;44.12;96450.38;4170223;28;5738;-74
2022/08/27 15:03:13;;;;;;;;;;;;;;;27.88;44.09;96450.91;4170395;28;6286;-73
2022/08/27 15:05:18;;;;;;;;;;;;;;;27.86;43.90;96450.38;4168139;28;6641;-75
2022/08/27 15:07:26;;;;;;;;;;;;;;;27.90;43.67;96458.75;4169933;28;5825;-74
2022/08/27 15:09:30;;;;;;;;;;;;;;;27.93;43.50;96452.66;4170191;28;5734;-73
2022/08/27 15:11:36;;;;;;;;;;;;;;;27.93;43.13;96452.66;4169877;28;6441;-74
2022/08/27 15:13:39;;;;;;;;;;;;;;;27.91;43.20;96461.13;4170109;28;5750;-74
2022/08/27 15:15:42;;;;;;;;;;;;;;;27.91;42.97;96461.13;4168126;28;5810;-74
2022/08/27 15:17:45;;;;;;;;;;;;;;;27.88;42.82;96459.06;4168149;28;6461;-74
2022/08/27 15:19:48;;;;;;;;;;;;;;;27.88;42.52;96467.19;4169622;28;5792;-73
2022/08/27 15:21:54;;;;;;;;;;;;;;;27.90;42.57;96464.16;4169610;28;5730;-74
2022/08/27 15:24:00;;;;;;;;;;;;;;;27.93;42.33;96468.97;4169559;28;5824;-75
2022/08/27 15:26:03;;;;;;;;;;;;;;;27.91;42.35;96465.78;4169479;28;6185;-74
2022/08/27 15:28:06;;;;;;;;;;;;;;;27.88;42.57;96471.84;4168248;28;5881;-74
2022/08/27 15:30:12;;;;;;;;;;;;;;;27.87;42.11;96471.03;4169008;28;5820;-74
2022/08/27 15:32:28;;;;;;;;;;;;;;;27.88;41.81;96471.84;4169065;28;5737;-73
2022/08/27 15:34:32;;;;;;;;;;;;;;;27.85;42.00;96463.16;4169456;28;5746;-74
2022/08/27 15:36:35;;;;;;;;;;;;;;;27.84;41.88;96461.56;4169084;28;5741;-75
2022/08/27 15:38:39;;;;;;;;;;;;;;;27.83;41.69;96470.84;4169113;28;5741;-75
2022/08/27 15:40:42;;;;;;;;;;;;;;;27.82;41.63;96471.94;4169651;28;5745;-74
2022/08/27 15:42:48;;;;;;;;;;;;;;;27.80;41.62;96466.03;4169499;28;5852;-74
2022/08/27 15:44:54;;;;;;;;;;;;;;;27.83;41.74;96470.84;4168157;28;5810;-75
2022/08/27 15:46:57;;;;;;;;;;;;;;;27.82;41.68;96463.81;4167749;28;5877;-74
2022/08/27 15:49:00;;;;;;;;;;;;;;;27.81;41.61;96472.28;4167594;28;5845;-74
2022/08/27 15:51:06;;;;;;;;;;;;;;;27.80;41.62;96470.66;4168873;28;5737;-74
2022/08/27 15:53:10;;;;;;;;;;;;;;;27.79;41.43;96469.88;4168974;28;5840;-74
2022/08/27 15:55:20;;;;;;;;;;;;;;;27.78;41.60;96472.91;4167894;28;5780;-75
2022/08/27 15:57:23;;;;;;;;;;;;;;;27.76;41.47;96475.94;4167978;28;5787;-75
2022/08/27 15:59:26;;;;;;;;;;;;;;;27.76;41.40;96481.34;4169425;28;5813;-75
2022/08/27 16:01:34;;;;;;;;;;;;;;;27.76;41.33;96469.69;4169357;28;5806;-75
2022/08/27 16:03:38;;;;;;;;;;;;;;;27.75;41.13;96474.31;4168965;28;5824;-73
2022/08/27 16:05:44;;;;;;;;;;;;;;;27.74;41.17;96478.13;4166980;28;5791;-73
2022/08/27 16:07:47;;;;;;;;;;;;;;;27.74;41.26;96480.84;4168300;28;5856;-73
2022/08/27 16:09:49;;;;;;;;;;;;;;;27.73;41.07;96475.72;4168999;28;5797;-73
2022/08/27 16:11:54;;;;;;;;;;;;;;;27.73;41.10;96479.25;4168850;28;5726;-74
2022/08/27 16:13:57;;;;;;;;;;;;;;;27.73;41.18;96476.53;4168186;28;5821;-73
2022/08/27 16:16:01;;;;;;;;;;;;;;;27.73;41.20;96476.53;4167732;28;5737;-73
2022/08/27 16:18:04;;;;;;;;;;;;;;;27.75;41.05;96479.75;4168203;28;5749;-74
2022/08/27 16:20:10;;;;;;;;;;;;;;;27.75;40.89;96479.75;4169172;28;5747;-73
2022/08/27 16:22:13;;;;;;;;;;;;;;;27.75;40.88;96477.03;4168171;28;6645;-76
2022/08/27 16:24:16;;;;;;;;;;;;;;;27.73;41.07;96481.97;4168178;28;6301;-72
2022/08/27 16:26:19;;;;;;;;;;;;;;;27.76;40.93;96475.13;4169091;28;5737;-73
2022/08/27 16:28:24;;;;;;;;;;;;;;;27.76;40.73;96478.66;4168653;28;5749;-73
2022/08/27 16:30:28;;;;;;;;;;;;;;;27.77;40.89;96482.97;4168710;28;5967;-75
2022/08/27 16:32:31;;;;;;;;;;;;;;;27.76;40.80;96477.84;4167468;28;5841;-74
2022/08/27 16:34:34;;;;;;;;;;;;;;;27.76;40.77;96470.50;4166804;28;5815;-73
2022/08/27 16:36:37;;;;;;;;;;;;;;;27.75;40.66;96474.31;4168597;28;5859;-73
2022/08/27 16:38:40;;;;;;;;;;;;;;;27.74;40.78;96480.84;4167574;28;5871;-73
2022/08/27 16:40:47;;;;;;;;;;;;;;;27.76;40.56;96475.94;4168975;28;5737;-74
2022/08/27 16:42:52;;;;;;;;;;;;;;;27.76;40.59;96473.22;4168903;28;5824;-73
2022/08/27 16:44:56;;;;;;;;;;;;;;;27.76;40.69;96470.50;4168206;28;5737;-73
2022/08/27 16:46:59;;;;;;;;;;;;;;;27.77;40.77;96474.00;4159147;28;5774;-74
2022/08/27 16:51:27;;;;;;;;;;;;;;;27.80;40.68;96470.66;4157241;28;5782;-74
2022/08/27 16:53:39;;;;;;;;;;;;;;;27.80;40.80;96482.34;4158509;28;5774;-73
2022/08/27 16:55:44;;;;;;;;;;;;;;;27.80;40.64;96471.47;4168837;28;6016;-74
2022/08/27 16:57:47;;;;;;;;;;;;;;;27.80;40.88;96476.91;4156789;28;6100;-73
2022/08/27 16:59:50;;;;;;;;;;;;;;;27.80;40.60;96474.19;4156324;28;5452;-74
2022/08/27 17:01:55;;;;;;;;;;;;;;;27.80;40.86;96471.47;4157298;28;7595;-73
2022/08/27 17:04:01;;;;;;;;;;;;;;;27.81;40.30;96473.06;4165842;28;5852;-75
2022/08/27 17:06:16;;;;;;;;;;;;;;;27.82;40.70;96463.81;4161772;28;5825;-73
2022/08/27 17:08:22;;;;;;;;;;;;;;;27.82;40.52;96474.66;4156324;28;5943;-74
2022/08/27 17:10:34;;;;;;;;;;;;;;;27.81;40.37;96470.34;4163012;28;5827;-75
2022/08/27 17:12:37;;;;;;;;;;;;;;;27.82;40.66;96471.94;4159769;28;5841;-74
2022/08/27 17:14:39;;;;;;;;;;;;;;;27.81;40.81;96475.78;4154755;28;5750;-74
2022/08/27 17:16:42;;;;;;;;;;;;;;;27.81;40.65;96464.91;4158644;28;6012;-75
2022/08/27 17:18:47;;;;;;;;;;;;;;;27.81;40.77;96472.28;4157597;28;5825;-75
2022/08/27 17:20:52;;;;;;;;;;;;;;;27.81;40.42;96477.69;4159461;28;8865;-75
2022/08/27 17:22:55;;;;;;;;;;;;;;;27.80;40.70;96476.91;4166251;28;5809;-74
2022/08/27 17:24:58;;;;;;;;;;;;;;;27.79;40.49;96469.88;4160246;28;5897;-74
2022/08/27 17:27:01;;;;;;;;;;;;;;;27.79;40.70;96477.22;4151307;28;6060;-75
2022/08/27 17:29:04;;;;;;;;;;;;;;;27.77;40.58;96472.09;4160450;28;5783;-74
2022/08/27 17:31:08;;;;;;;;;;;;;;;27.77;40.60;96485.69;4160078;28;5956;-76
2022/08/27 17:33:19;;;;;;;;;;;;;;;27.76;40.68;96480.56;4159953;28;5745;-74
2022/08/27 17:35:23;;;;;;;;;;;;;;;27.75;40.56;96485.19;4160297;28;5945;-74
2022/08/27 17:37:26;;;;;;;;;;;;;;;27.74;40.75;96483.56;4165083;28;5880;-75
2022/08/27 17:39:30;;;;;;;;;;;;;;;27.73;40.83;96481.97;4164727;28;5770;-69
2022/08/27 17:41:36;;;;;;;;;;;;;;;27.71;40.61;96484.19;4157907;28;5742;-70
2022/08/27 17:43:40;;;;;;;;;;;;;;;27.70;40.63;96477.16;4159746;28;6096;-69
2022/08/27 17:45:43;;;;;;;;;;;;;;;27.67;40.89;96469.63;4154669;28;5778;-72
2022/08/27 17:47:46;;;;;;;;;;;;;;;27.64;41.00;96474.88;4158997;28;5830;-70
2022/08/27 17:49:49;;;;;;;;;;;;;;;27.62;40.89;96471.63;4156658;28;5101;-72
2022/08/27 17:51:57;;;;;;;;;;;;;;;27.62;41.09;96474.34;4155241;28;5831;-69
2022/08/27 17:53:59;;;;;;;;;;;;;;;27.63;41.13;96475.94;4155249;28;5825;-80
2022/08/27 17:56:03;;;;;;;;;;;;;;;27.62;41.04;96479.78;4162286;28;5841;-73
2022/08/27 17:58:06;;;;;;;;;;;;;;;27.63;40.95;96475.94;4156663;28;5762;-71
2022/08/27 18:00:13;;;;;;;;;;;;;;;27.60;41.06;96484.72;4152786;28;6236;-67
2022/08/27 18:02:20;;;;;;;;;;;;;;;27.58;41.20;96485.03;4160518;28;5872;-73
2022/08/27 18:04:23;;;;;;;;;;;;;;;27.56;41.30;96487.25;4156728;28;5822;-71
2022/08/27 18:06:27;;;;;;;;;;;;;;;27.57;41.18;96486.16;4152155;28;5147;-72
2022/08/27 18:08:31;;;;;;;;;;;;;;;27.54;41.38;96484.06;4156257;28;5962;-74
2022/08/27 18:10:35;;;;;;;;;;;;;;;27.53;41.28;96479.75;4154850;28;5883;-72
2022/08/27 18:12:39;;;;;;;;;;;;;;;27.53;41.36;96490.59;4155832;28;5784;-73
2022/08/27 18:14:42;;;;;;;;;;;;;;;27.51;41.56;96493.59;4153867;28;6249;-72
2022/08/27 18:16:46;;;;;;;;;;;;;;;27.52;41.59;96494.41;4159900;28;5949;-72
2022/08/27 18:18:49;;;;;;;;;;;;;;;27.50;41.60;96494.72;4158140;28;5861;-73
2022/08/27 18:20:51;;;;;;;;;;;;;;;27.49;41.66;96492.31;4157518;28;5775;-73
2022/08/27 18:22:56;;;;;;;;;;;;;;;27.50;41.73;96493.91;4157459;28;5737;-76
2022/08/27 18:25:01;;;;;;;;;;;;;;;27.48;41.77;96501.56;4160469;28;5733;-73
2022/08/27 18:27:04;;;;;;;;;;;;;;;27.46;41.83;96499.16;4155582;28;6112;-74
2022/08/27 18:29:07;;;;;;;;;;;;;;;27.46;41.83;96503.81;4161385;28;6013;-72
2022/08/27 18:31:11;;;;;;;;;;;;;;;27.45;41.68;96503.00;4154445;28;5933;-72
2022/08/27 18:33:14;;;;;;;;;;;;;;;27.40;41.90;96502.31;4152848;28;5770;-73
2022/08/27 18:35:20;;;;;;;;;;;;;;;27.38;41.78;96496.38;4160043;28;5780;-73
2022/08/27 18:37:23;;;;;;;;;;;;;;;27.38;42.09;96507.25;4158258;28;6155;-71
2022/08/27 18:39:26;;;;;;;;;;;;;;;27.36;42.05;96501.31;4156998;28;6009;-72
2022/08/27 18:41:31;;;;;;;;;;;;;;;27.37;42.01;96508.34;4158427;28;5992;-73
2022/08/27 18:43:35;;;;;;;;;;;;;;;27.36;42.18;96504.03;4155870;28;5807;-73
2022/08/27 18:45:38;;;;;;;;;;;;;;;27.34;42.02;96517.91;4158988;28;5897;-70
2022/08/27 18:47:41;;;;;;;;;;;;;;;27.32;42.19;96514.72;4160175;28;5793;-68
2022/08/27 18:49:45;;;;;;;;;;;;;;;27.28;42.33;96524.56;4158800;28;5824;-69
2022/08/27 18:51:49;;;;;;;;;;;;;;;27.26;42.38;96515.94;4158898;28;6816;-66
2022/08/27 18:53:54;;;;;;;;;;;;;;;27.26;42.27;96510.50;4158811;28;5841;-71
2022/08/27 18:55:57;;;;;;;;;;;;;;;27.23;42.40;96511.13;4155282;28;5828;-73
2022/08/27 18:58:01;;;;;;;;;;;;;;;27.24;42.15;96512.72;4150695;28;5750;-76
2022/08/27 19:00:05;;;;;;;;;;;;;;;27.22;42.38;96523.91;4156575;28;5774;-72
2022/08/27 19:02:15;;;;;;;;;;;;;;;27.22;42.57;96525.81;4153473;28;6016;-72
2022/08/27 19:04:18;;;;;;;;;;;;;;;27.18;42.50;96520.19;4153537;28;5725;-73
2022/08/27 19:06:22;;;;;;;;;;;;;;;27.14;42.57;96519.19;4155819;28;5861;-74
2022/08/27 19:08:26;;;;;;;;;;;;;;;27.14;42.70;96519.19;4156730;28;5737;-71
2022/08/27 19:10:30;;;;;;;;;;;;;;;27.16;42.55;96519.69;4154579;28;5877;-74
2022/08/27 19:12:33;;;;;;;;;;;;;;;27.18;42.34;96530.22;4160684;28;6405;-72
2022/08/27 19:14:40;;;;;;;;;;;;;;;27.17;42.61;96528.63;4159879;28;5745;-70
2022/08/27 19:16:54;;;;;;;;;;;;;;;27.15;42.73;96537.06;4158095;28;5907;-74
2022/08/27 19:18:57;;;;;;;;;;;;;;;27.15;42.51;96533.56;4160886;28;5815;-70
2022/08/27 19:21:00;;;;;;;;;;;;;;;27.14;42.50;96524.63;4160895;28;6441;-73
2022/08/27 19:23:04;;;;;;;;;;;;;;;27.13;42.72;96533.84;4158331;28;5870;-72
2022/08/27 19:25:07;;;;;;;;;;;;;;;27.08;42.47;96536.69;4152766;28;6374;-69
2022/08/27 19:27:10;;;;;;;;;;;;;;;27.06;42.63;96529.94;4164523;28;5745;-68
2022/08/27 19:29:13;;;;;;;;;;;;;;;26.99;42.58;96523.03;4158281;28;5973;-66
2022/08/27 19:31:17;;;;;;;;;;;;;;;26.98;42.72;96532.25;4156218;28;6583;-69
2022/08/27 19:33:21;;;;;;;;;;;;;;;26.95;42.95;96538.28;4159645;28;5877;-69
2022/08/27 19:35:24;;;;;;;;;;;;;;;26.90;43.04;96537.59;4190300;28;5739;-67
2022/08/27 19:37:30;;;;;;;;;;;;;;;26.88;43.06;96534.41;4160335;28;5828;-69
2022/08/27 19:39:35;;;;;;;;;;;;;;;26.86;43.08;96533.91;4162830;28;5721;-75
2022/08/27 19:41:39;;;;;;;;;;;;;;;26.87;42.96;96530.88;4160522;28;5763;-77
2022/08/27 19:43:41;;;;;;;;;;;;;;;26.82;43.21;96527.44;4161526;28;5745;-76
2022/08/27 19:45:48;;;;;;;;;;;;;;;26.77;43.16;96528.38;4153093;28;8384;-72
2022/08/27 19:47:54;;;;;;;;;;;;;;;26.70;43.66;96530.69;4157741;28;5786;-72
2022/08/27 19:49:56;;;;;;;;;;;;;;;26.65;43.49;96533.50;4158873;28;5918;-74
2022/08/27 19:51:59;;;;;;;;;;;;;;;26.60;43.76;96537.09;4165777;28;5921;-69
2022/08/27 19:54:08;;;;;;;;;;;;;;;26.56;43.76;96540.75;4168596;28;5733;-73
2022/08/27 19:56:12;;;;;;;;;;;;;;;26.53;43.98;96539.44;4168126;28;5777;-68
2022/08/27 19:58:17;;;;;;;;;;;;;;;26.51;44.22;96530.81;4162593;28;5808;-70
2022/08/27 20:00:23;;;;;;;;;;;;;;;26.49;44.36;96526.78;4163852;28;5753;-69
2022/08/27 20:02:29;;;;;;;;;;;;;;;26.46;44.50;96525.47;4154351;28;5749;-70
2022/08/27 20:04:34;;;;;;;;;;;;;;;26.45;44.64;96539.34;4161416;28;5775;-69
2022/08/27 20:06:53;;;;;;;;;;;;;;;26.40;44.41;96526.69;4163724;28;5745;-73
2022/08/27 20:08:57;;;;;;;;;;;;;;;26.41;44.61;96522.88;4157247;28;5850;-69
2022/08/27 20:11:03;;;;;;;;;;;;;;;26.37;44.48;96525.38;4164486;28;5828;-72
2022/08/27 20:13:07;;;;;;;;;;;;;;;26.37;44.51;96524.56;4156928;28;5937;-70
2022/08/27 20:15:11;;;;;;;;;;;;;;;26.34;44.60;96527.84;4170175;28;5629;-78
2022/08/27 20:17:14;;;;;;;;;;;;;;;26.32;45.12;96530.06;4171592;28;5796;-71
2022/08/27 20:19:18;;;;;;;;;;;;;;;26.29;44.76;96530.66;4156097;28;5751;-70
2022/08/27 20:21:23;;;;;;;;;;;;;;;26.30;45.23;96518.72;4159086;28;5927;-69
2022/08/27 20:23:26;;;;;;;;;;;;;;;26.30;44.96;96516.00;4160471;28;5858;-69
2022/08/27 20:25:29;;;;;;;;;;;;;;;26.28;45.08;96520.94;4152913;28;5928;-72
2022/08/27 20:27:32;;;;;;;;;;;;;;;26.27;45.00;96532.84;4152426;28;6460;-72
2022/08/27 20:29:36;;;;;;;;;;;;;;;26.23;45.15;96526.44;4154044;28;5829;-71
2022/08/27 20:31:39;;;;;;;;;;;;;;;26.22;45.38;96530.25;4156494;28;5902;-71
2022/08/27 20:33:43;;;;;;;;;;;;;;;26.22;45.19;96538.38;4162138;28;5709;-76